createdAt,value
2019-04-26T00:00:21.419Z,25.57
2019-04-26T00:01:21.412Z,25.61
2019-04-26T00:02:21.415Z,25.57
2019-04-26T00:03:21.399Z,25.57
2019-04-26T00:04:21.412Z,25.64
2019-04-26T00:05:33.685Z,25.58
2019-04-26T00:06:22.376Z,25.67
2019-04-26T00:07:21.380Z,25.61
2019-04-26T00:08:22.121Z,25.61
2019-04-26T00:09:22.137Z,25.60
2019-04-26T00:10:22.327Z,25.61
2019-04-26T00:11:22.397Z,25.60
2019-04-26T00:12:21.333Z,25.58
2019-04-26T00:13:21.323Z,25.58
2019-04-26T00:14:21.322Z,25.57
2019-04-26T00:15:21.312Z,25.58
2019-04-26T00:16:21.404Z,25.60
2019-04-26T00:17:22.159Z,25.64
2019-04-26T00:18:21.307Z,25.55
2019-04-26T00:19:21.290Z,25.47
2019-04-26T00:20:21.307Z,25.58
2019-04-26T00:21:21.274Z,25.51
2019-04-26T00:22:21.281Z,25.60
2019-04-26T00:23:22.463Z,25.62
2019-04-26T00:24:21.518Z,25.50
2019-04-26T00:25:21.246Z,25.60
2019-04-26T00:26:21.805Z,25.55
2019-04-26T00:27:21.325Z,25.52
2019-04-26T00:28:21.261Z,25.58
2019-04-26T00:29:21.265Z,25.57
2019-04-26T00:30:21.337Z,25.57
2019-04-26T00:31:21.379Z,25.55
2019-04-26T00:32:21.457Z,25.60
2019-04-26T00:33:21.456Z,25.52
2019-04-26T00:34:21.712Z,25.58
2019-04-26T00:35:22.153Z,25.52
2019-04-26T00:36:21.160Z,25.54
2019-04-26T00:37:21.153Z,25.52
2019-04-26T00:38:22.312Z,25.55
2019-04-26T00:39:21.412Z,25.57
2019-04-26T00:40:21.147Z,25.51
2019-04-26T00:41:21.133Z,25.52
2019-04-26T00:42:21.114Z,25.58
2019-04-26T00:43:21.133Z,25.54
2019-04-26T00:44:21.150Z,25.55
2019-04-26T00:45:21.162Z,25.52
2019-04-26T00:46:21.155Z,25.52
2019-04-26T00:47:21.194Z,25.54
2019-04-26T00:48:21.159Z,25.52
2019-04-26T00:49:21.299Z,25.55
2019-04-26T00:50:21.350Z,25.57
2019-04-26T00:51:21.347Z,25.52
2019-04-26T00:52:21.614Z,25.54
2019-04-26T00:53:21.825Z,25.55
2019-04-26T00:54:22.155Z,25.46
2019-04-26T00:55:21.927Z,25.46
2019-04-26T00:56:22.165Z,25.54
2019-04-26T00:57:22.306Z,25.54
2019-04-26T00:58:22.297Z,25.51
2019-04-26T00:59:21.096Z,25.54
2019-04-26T01:00:21.519Z,25.51
2019-04-26T01:01:21.075Z,25.54
2019-04-26T01:02:21.063Z,25.55
2019-04-26T01:03:21.055Z,25.47
2019-04-26T01:04:21.069Z,25.51
2019-04-26T01:05:21.045Z,25.51
2019-04-26T01:06:21.042Z,25.50
2019-04-26T01:07:21.224Z,25.51
2019-04-26T01:08:21.285Z,25.52
2019-04-26T01:09:21.559Z,25.42
2019-04-26T01:10:21.665Z,25.43
2019-04-26T01:11:21.767Z,25.50
2019-04-26T01:12:21.906Z,25.52
2019-04-26T01:13:21.961Z,25.47
2019-04-26T01:14:21.999Z,25.50
2019-04-26T01:15:22.040Z,25.51
2019-04-26T01:16:20.961Z,25.46
2019-04-26T01:17:20.950Z,25.45
2019-04-26T01:18:20.951Z,25.42
2019-04-26T01:19:20.940Z,25.42
2019-04-26T01:20:20.925Z,25.38
2019-04-26T01:21:20.923Z,25.55
2019-04-26T01:22:21.203Z,25.47
2019-04-26T01:23:21.003Z,25.50
2019-04-26T01:24:21.127Z,25.35
2019-04-26T01:25:21.133Z,25.47
2019-04-26T01:26:21.136Z,25.45
2019-04-26T01:27:21.342Z,25.50
2019-04-26T01:28:21.332Z,25.40
2019-04-26T01:29:21.767Z,25.40
2019-04-26T01:30:21.687Z,25.45
2019-04-26T01:31:21.844Z,25.47
2019-04-26T01:32:21.990Z,25.46
2019-04-26T01:33:21.871Z,25.47
2019-04-26T01:34:20.872Z,25.54
2019-04-26T01:35:20.821Z,25.36
2019-04-26T01:36:20.824Z,25.42
2019-04-26T01:37:20.806Z,25.50
2019-04-26T01:38:21.799Z,25.45
2019-04-26T01:39:21.316Z,25.30
2019-04-26T01:40:21.943Z,25.40
2019-04-26T01:41:21.389Z,25.38
2019-04-26T01:42:21.000Z,25.40
2019-04-26T01:43:21.684Z,25.36
2019-04-26T01:44:21.728Z,25.38
2019-04-26T01:45:21.678Z,25.36
2019-04-26T01:46:22.098Z,25.38
2019-04-26T01:47:21.291Z,25.43
2019-04-26T01:48:22.158Z,25.36
2019-04-26T01:49:21.333Z,25.43
2019-04-26T01:50:20.994Z,25.38
2019-04-26T01:51:21.748Z,25.42
2019-04-26T01:52:22.370Z,25.43
2019-04-26T01:53:21.130Z,25.35
2019-04-26T01:54:22.457Z,25.46
2019-04-26T01:55:21.588Z,25.35
2019-04-26T01:56:20.857Z,25.43
2019-04-26T01:57:20.977Z,25.45
2019-04-26T01:58:21.849Z,25.39
2019-04-26T01:59:20.980Z,25.35
2019-04-26T02:00:21.199Z,25.40
2019-04-26T02:01:21.099Z,25.40
2019-04-26T02:02:21.331Z,25.33
2019-04-26T02:03:21.556Z,25.40
2019-04-26T02:04:22.455Z,25.36
2019-04-26T02:05:22.369Z,25.40
2019-04-26T02:06:29.143Z,25.33
2019-04-26T02:07:21.781Z,25.38
2019-04-26T02:08:20.560Z,25.36
2019-04-26T02:09:20.565Z,25.36
2019-04-26T02:10:20.574Z,25.30
2019-04-26T02:11:20.548Z,25.40
2019-04-26T02:12:20.556Z,25.33
2019-04-26T02:13:20.546Z,25.40
2019-04-26T02:14:20.547Z,25.32
2019-04-26T02:15:20.535Z,25.36
2019-04-26T02:16:20.601Z,25.43
2019-04-26T02:17:20.534Z,25.35
2019-04-26T02:18:20.523Z,25.30
2019-04-26T02:19:20.546Z,25.36
2019-04-26T02:20:20.523Z,25.33
2019-04-26T02:21:20.512Z,25.30
2019-04-26T02:22:20.523Z,25.28
2019-04-26T02:23:20.567Z,25.35
2019-04-26T02:24:20.504Z,25.30
2019-04-26T02:25:20.497Z,25.30
2019-04-26T02:26:20.478Z,25.42
2019-04-26T02:27:20.488Z,25.38
2019-04-26T02:28:20.484Z,25.36
2019-04-26T02:29:20.462Z,25.38
2019-04-26T02:30:20.460Z,25.43
2019-04-26T02:31:20.450Z,25.32
2019-04-26T02:32:20.446Z,25.32
2019-04-26T02:33:20.474Z,25.36
2019-04-26T02:34:20.547Z,25.35
2019-04-26T02:35:20.445Z,25.25
2019-04-26T02:36:20.435Z,25.35
2019-04-26T02:37:20.428Z,25.32
2019-04-26T02:38:20.409Z,25.35
2019-04-26T02:39:20.427Z,25.33
2019-04-26T02:40:20.414Z,25.32
2019-04-26T02:41:20.412Z,25.27
2019-04-26T02:42:20.419Z,25.33
2019-04-26T02:43:20.392Z,25.32
2019-04-26T02:44:22.165Z,25.39
2019-04-26T02:45:20.376Z,25.35
2019-04-26T02:46:20.369Z,25.36
2019-04-26T02:47:20.350Z,25.33
2019-04-26T02:48:20.353Z,25.27
2019-04-26T02:49:20.341Z,25.35
2019-04-26T02:50:20.338Z,25.42
2019-04-26T02:51:20.316Z,25.32
2019-04-26T02:52:20.327Z,25.30
2019-04-26T02:53:20.316Z,25.30
2019-04-26T02:54:20.297Z,25.25
2019-04-26T02:55:20.295Z,25.25
2019-04-26T02:56:20.283Z,25.28
2019-04-26T02:57:20.277Z,25.30
2019-04-26T02:58:20.365Z,25.27
2019-04-26T02:59:20.261Z,25.30
2019-04-26T03:00:20.247Z,25.23
2019-04-26T03:01:20.251Z,25.28
2019-04-26T03:02:20.269Z,25.32
2019-04-26T03:03:20.224Z,25.35
2019-04-26T03:04:20.310Z,25.39
2019-04-26T03:05:20.215Z,25.39
2019-04-26T03:06:20.209Z,25.36
2019-04-26T03:07:20.202Z,25.38
2019-04-26T03:08:20.198Z,25.30
2019-04-26T03:09:20.192Z,25.38
2019-04-26T03:10:20.202Z,25.40
2019-04-26T03:11:20.186Z,25.33
2019-04-26T03:12:20.173Z,25.38
2019-04-26T03:13:20.161Z,25.23
2019-04-26T03:14:20.161Z,25.35
2019-04-26T03:15:20.169Z,25.38
2019-04-26T03:16:20.173Z,25.35
2019-04-26T03:17:20.153Z,25.28
2019-04-26T03:18:20.154Z,25.30
2019-04-26T03:19:20.154Z,25.30
2019-04-26T03:20:20.153Z,25.24
2019-04-26T03:21:20.144Z,25.25
2019-04-26T03:22:20.146Z,25.33
2019-04-26T03:23:20.283Z,25.21
2019-04-26T03:24:20.121Z,25.38
2019-04-26T03:25:20.172Z,25.30
2019-04-26T03:26:20.102Z,25.25
2019-04-26T03:27:20.098Z,25.36
2019-04-26T03:28:20.157Z,25.33
2019-04-26T03:29:20.083Z,25.35
2019-04-26T03:30:22.911Z,25.30
2019-04-26T03:31:20.207Z,25.25
2019-04-26T03:32:20.104Z,25.25
2019-04-26T03:33:20.198Z,25.32
2019-04-26T03:34:20.567Z,25.28
2019-04-26T03:35:20.122Z,25.35
2019-04-26T03:36:20.096Z,25.30
2019-04-26T03:37:21.717Z,25.28
2019-04-26T03:38:20.138Z,25.32
2019-04-26T03:39:20.075Z,25.24
2019-04-26T03:40:20.066Z,25.28
2019-04-26T03:41:20.069Z,25.33
2019-04-26T03:42:20.038Z,25.28
2019-04-26T03:43:20.044Z,25.24
2019-04-26T03:44:20.026Z,25.30
2019-04-26T03:45:20.028Z,25.30
2019-04-26T03:46:20.061Z,25.21
2019-04-26T03:47:20.068Z,25.23
2019-04-26T03:48:20.044Z,25.24
2019-04-26T03:49:19.996Z,25.33
2019-04-26T03:50:19.988Z,25.27
2019-04-26T03:51:19.973Z,25.32
2019-04-26T03:52:20.047Z,25.25
2019-04-26T03:53:19.969Z,25.32
2019-04-26T03:54:19.957Z,25.35
2019-04-26T03:55:19.948Z,25.25
2019-04-26T03:56:20.009Z,25.27
2019-04-26T03:57:19.934Z,25.20
2019-04-26T03:58:20.022Z,25.32
2019-04-26T03:59:19.925Z,25.32
2019-04-26T04:00:19.928Z,25.30
2019-04-26T04:01:19.931Z,25.23
2019-04-26T04:02:19.917Z,25.25
2019-04-26T04:03:19.905Z,25.25
2019-04-26T04:04:19.930Z,25.30
2019-04-26T04:05:19.898Z,25.30
2019-04-26T04:06:19.864Z,25.20
2019-04-26T04:07:35.658Z,25.30
2019-04-26T04:08:20.861Z,25.25
2019-04-26T04:09:19.849Z,25.27
2019-04-26T04:10:19.942Z,25.30
2019-04-26T04:11:19.955Z,25.25
2019-04-26T04:12:19.840Z,25.23
2019-04-26T04:13:19.805Z,25.15
2019-04-26T04:14:19.970Z,25.30
2019-04-26T04:15:19.795Z,25.15
2019-04-26T04:16:19.796Z,25.24
2019-04-26T04:17:19.834Z,25.21
2019-04-26T04:18:19.771Z,25.23
2019-04-26T04:19:19.786Z,25.20
2019-04-26T04:20:19.776Z,25.14
2019-04-26T04:21:19.764Z,25.24
2019-04-26T04:22:19.757Z,25.20
2019-04-26T04:23:19.774Z,25.30
2019-04-26T04:24:19.736Z,25.14
2019-04-26T04:25:19.732Z,25.21
2019-04-26T04:26:19.740Z,25.17
2019-04-26T04:27:19.812Z,25.20
2019-04-26T04:28:19.747Z,25.15
2019-04-26T04:29:19.710Z,25.21
2019-04-26T04:30:19.723Z,25.24
2019-04-26T04:31:19.703Z,25.20
2019-04-26T04:32:19.717Z,25.15
2019-04-26T04:33:19.704Z,25.20
2019-04-26T04:34:19.702Z,25.17
2019-04-26T04:35:19.741Z,25.24
2019-04-26T04:36:19.671Z,25.21
2019-04-26T04:37:19.687Z,25.14
2019-04-26T04:38:19.675Z,25.23
2019-04-26T04:39:19.706Z,25.20
2019-04-26T04:40:19.764Z,25.17
2019-04-26T04:41:19.680Z,25.17
2019-04-26T04:42:19.685Z,25.17
2019-04-26T04:43:19.731Z,25.25
2019-04-26T04:44:19.649Z,25.13
2019-04-26T04:45:19.643Z,25.06
2019-04-26T04:46:19.764Z,25.13
2019-04-26T04:47:24.473Z,25.03
2019-04-26T04:48:20.703Z,25.09
2019-04-26T04:49:19.629Z,25.10
2019-04-26T04:50:19.615Z,25.03
2019-04-26T04:51:19.645Z,25.14
2019-04-26T04:52:19.625Z,25.14
2019-04-26T04:53:19.595Z,25.15
2019-04-26T04:54:19.587Z,25.13
2019-04-26T04:55:19.574Z,25.17
2019-04-26T04:56:19.567Z,25.18
2019-04-26T04:57:19.559Z,25.10
2019-04-26T04:58:19.633Z,25.13
2019-04-26T04:59:19.548Z,25.05
2019-04-26T05:00:19.566Z,25.06
2019-04-26T05:01:19.534Z,25.09
2019-04-26T05:02:19.518Z,25.05
2019-04-26T05:03:19.524Z,25.18
2019-04-26T05:04:19.515Z,25.09
2019-04-26T05:05:19.521Z,25.00
2019-04-26T05:06:19.487Z,25.15
2019-04-26T05:07:19.480Z,25.09
2019-04-26T05:08:19.476Z,25.14
2019-04-26T05:09:19.483Z,25.13
2019-04-26T05:10:19.469Z,25.09
2019-04-26T05:11:19.473Z,24.99
2019-04-26T05:12:19.463Z,25.03
2019-04-26T05:13:19.461Z,25.10
2019-04-26T05:14:19.476Z,25.14
2019-04-26T05:15:19.439Z,25.03
2019-04-26T05:16:19.458Z,25.02
2019-04-26T05:17:19.447Z,25.00
2019-04-26T05:18:19.451Z,24.99
2019-04-26T05:19:19.451Z,25.08
2019-04-26T05:20:19.446Z,25.09
2019-04-26T05:21:19.451Z,25.02
2019-04-26T05:22:19.461Z,25.03
2019-04-26T05:23:19.424Z,25.05
2019-04-26T05:24:19.412Z,25.02
2019-04-26T05:25:19.424Z,25.08
2019-04-26T05:26:19.487Z,25.08
2019-04-26T05:27:19.416Z,25.09
2019-04-26T05:28:19.498Z,25.05
2019-04-26T05:29:19.488Z,24.98
2019-04-26T05:30:19.386Z,25.08
2019-04-26T05:31:19.382Z,24.93
2019-04-26T05:32:19.374Z,25.00
2019-04-26T05:33:19.365Z,25.08
2019-04-26T05:34:19.413Z,25.08
2019-04-26T05:35:19.356Z,25.05
2019-04-26T05:36:19.347Z,25.03
2019-04-26T05:37:19.333Z,25.05
2019-04-26T05:38:19.341Z,25.02
2019-04-26T05:39:19.339Z,25.03
2019-04-26T05:40:19.415Z,25.06
2019-04-26T05:41:19.317Z,25.03
2019-04-26T05:42:19.306Z,25.02
2019-04-26T05:43:19.305Z,24.99
2019-04-26T05:44:19.294Z,25.06
2019-04-26T05:45:19.280Z,24.98
2019-04-26T05:46:19.484Z,24.96
2019-04-26T05:47:19.262Z,24.98
2019-04-26T05:48:19.255Z,25.05
2019-04-26T05:49:19.248Z,24.99
2019-04-26T05:50:19.241Z,25.00
2019-04-26T05:51:19.233Z,25.02
2019-04-26T05:52:19.250Z,25.00
2019-04-26T05:53:19.217Z,25.02
2019-04-26T05:54:19.243Z,25.05
2019-04-26T05:55:19.209Z,25.00
2019-04-26T05:56:19.193Z,24.99
2019-04-26T05:57:19.188Z,25.03
2019-04-26T05:58:19.205Z,24.98
2019-04-26T05:59:19.193Z,24.93
2019-04-26T06:00:19.185Z,24.96
2019-04-26T06:01:19.235Z,25.00
2019-04-26T06:02:19.174Z,24.95
2019-04-26T06:03:19.162Z,24.96
2019-04-26T06:04:19.183Z,25.03
2019-04-26T06:05:19.149Z,25.06
2019-04-26T06:06:19.153Z,25.03
2019-04-26T06:07:19.129Z,25.03
2019-04-26T06:08:30.632Z,25.02
2019-04-26T06:09:20.203Z,25.05
2019-04-26T06:10:19.135Z,25.02
2019-04-26T06:11:19.124Z,25.03
2019-04-26T06:12:19.129Z,25.09
2019-04-26T06:13:19.115Z,25.00
2019-04-26T06:14:19.104Z,25.02
2019-04-26T06:15:19.119Z,25.03
2019-04-26T06:16:19.087Z,25.03
2019-04-26T06:17:19.167Z,24.98
2019-04-26T06:18:19.067Z,25.05
2019-04-26T06:19:19.058Z,25.00
2019-04-26T06:20:23.045Z,25.06
2019-04-26T06:21:19.064Z,25.02
2019-04-26T06:22:19.048Z,24.96
2019-04-26T06:23:19.039Z,25.08
2019-04-26T06:24:19.026Z,24.98
2019-04-26T06:25:19.034Z,25.09
2019-04-26T06:26:19.020Z,25.00
2019-04-26T06:27:19.086Z,24.99
2019-04-26T06:28:18.998Z,25.10
2019-04-26T06:29:19.041Z,24.99
2019-04-26T06:30:18.983Z,24.99
2019-04-26T06:31:18.974Z,25.02
2019-04-26T06:32:19.004Z,24.98
2019-04-26T06:33:19.004Z,25.13
2019-04-26T06:34:18.950Z,25.05
2019-04-26T06:35:20.410Z,25.03
2019-04-26T06:36:18.941Z,25.03
2019-04-26T06:37:18.923Z,24.95
2019-04-26T06:38:18.968Z,24.96
2019-04-26T06:39:18.928Z,24.96
2019-04-26T06:40:18.908Z,24.91
2019-04-26T06:41:21.377Z,24.95
2019-04-26T06:42:18.916Z,24.98
2019-04-26T06:43:18.915Z,24.99
2019-04-26T06:44:18.887Z,24.96
2019-04-26T06:45:18.937Z,24.95
2019-04-26T06:46:18.945Z,25.02
2019-04-26T06:47:18.874Z,24.91
2019-04-26T06:48:18.867Z,25.02
2019-04-26T06:49:18.864Z,24.98
2019-04-26T06:50:18.846Z,25.00
2019-04-26T06:51:24.651Z,24.99
2019-04-26T06:52:19.830Z,24.95
2019-04-26T06:53:18.861Z,24.98
2019-04-26T06:54:18.823Z,24.99
2019-04-26T06:55:18.804Z,25.08
2019-04-26T06:56:18.809Z,24.99
2019-04-26T06:57:18.822Z,24.95
2019-04-26T06:58:18.806Z,24.96
2019-04-26T06:59:18.805Z,24.98
2019-04-26T07:00:18.795Z,25.08
2019-04-26T07:01:18.786Z,25.03
2019-04-26T07:02:18.827Z,24.99
2019-04-26T07:03:18.779Z,25.08
2019-04-26T07:04:18.758Z,25.05
2019-04-26T07:05:18.752Z,25.00
2019-04-26T07:06:18.751Z,25.03
2019-04-26T07:07:18.748Z,25.08
2019-04-26T07:08:18.743Z,25.02
2019-04-26T07:09:18.765Z,25.00
2019-04-26T07:10:18.721Z,25.00
2019-04-26T07:11:18.731Z,24.98
2019-04-26T07:12:18.729Z,24.93
2019-04-26T07:13:18.719Z,25.06
2019-04-26T07:14:18.712Z,25.06
2019-04-26T07:15:28.559Z,25.02
2019-04-26T07:16:23.222Z,24.93
2019-04-26T07:17:18.692Z,25.03
2019-04-26T07:18:18.685Z,24.98
2019-04-26T07:19:18.809Z,24.95
2019-04-26T07:20:18.669Z,24.99
2019-04-26T07:21:18.745Z,24.99
2019-04-26T07:22:18.654Z,24.96
2019-04-26T07:23:18.664Z,25.02
2019-04-26T07:24:18.652Z,24.98
2019-04-26T07:25:18.645Z,25.00
2019-04-26T07:26:18.652Z,24.99
2019-04-26T07:27:18.637Z,24.99
2019-04-26T07:28:18.724Z,25.03
2019-04-26T07:29:18.635Z,24.99
2019-04-26T07:30:18.637Z,24.98
2019-04-26T07:31:18.598Z,24.95
2019-04-26T07:32:18.596Z,24.96
2019-04-26T07:33:18.652Z,24.90
2019-04-26T07:34:18.574Z,24.95
2019-04-26T07:35:18.575Z,25.03
2019-04-26T07:36:18.602Z,24.99
2019-04-26T07:37:18.563Z,24.96
2019-04-26T07:38:18.566Z,24.93
2019-04-26T07:39:20.171Z,24.98
2019-04-26T07:40:18.561Z,25.02
2019-04-26T07:41:18.541Z,24.99
2019-04-26T07:42:18.542Z,24.96
2019-04-26T07:43:18.523Z,24.95
2019-04-26T07:44:18.586Z,25.03
2019-04-26T07:45:18.563Z,24.93
2019-04-26T07:46:18.505Z,24.95
2019-04-26T07:47:18.497Z,24.95
2019-04-26T07:48:18.499Z,24.98
2019-04-26T07:49:18.522Z,24.91
2019-04-26T07:50:18.493Z,24.93
2019-04-26T07:51:18.487Z,24.98
2019-04-26T07:52:18.465Z,24.95
2019-04-26T07:53:18.456Z,24.98
2019-04-26T07:54:18.486Z,24.95
2019-04-26T07:55:18.440Z,24.90
2019-04-26T07:56:18.433Z,24.90
2019-04-26T07:57:18.459Z,24.90
2019-04-26T07:58:18.420Z,24.91
2019-04-26T07:59:18.413Z,24.93
2019-04-26T08:00:18.400Z,24.98
2019-04-26T08:01:18.397Z,25.02
2019-04-26T08:02:18.384Z,24.95
2019-04-26T08:03:18.446Z,24.96
2019-04-26T08:04:18.370Z,24.93
2019-04-26T08:05:18.362Z,24.93
2019-04-26T08:06:18.362Z,24.96
2019-04-26T08:07:18.368Z,24.91
2019-04-26T08:08:18.450Z,25.00
2019-04-26T08:09:27.009Z,24.95
2019-04-26T08:10:19.323Z,24.91
2019-04-26T08:11:18.502Z,24.88
2019-04-26T08:12:18.312Z,24.96
2019-04-26T08:13:18.307Z,24.90
2019-04-26T08:14:18.295Z,24.96
2019-04-26T08:15:18.309Z,24.91
2019-04-26T08:16:18.291Z,24.93
2019-04-26T08:17:18.298Z,24.93
2019-04-26T08:18:18.271Z,24.87
2019-04-26T08:19:18.265Z,24.98
2019-04-26T08:20:18.259Z,24.95
2019-04-26T08:21:18.565Z,24.91
2019-04-26T08:22:21.807Z,25.03
2019-04-26T08:23:38.052Z,24.90
2019-04-26T08:24:19.265Z,24.95
2019-04-26T08:25:18.213Z,24.96
2019-04-26T08:26:18.203Z,24.98
2019-04-26T08:27:23.357Z,24.91
2019-04-26T08:28:19.187Z,24.95
2019-04-26T08:29:18.182Z,24.93
2019-04-26T08:30:19.338Z,24.91
2019-04-26T08:31:20.028Z,24.90
2019-04-26T08:32:18.191Z,24.91
2019-04-26T08:33:18.295Z,24.93
2019-04-26T08:34:21.108Z,24.85
2019-04-26T08:35:21.760Z,24.88
2019-04-26T08:36:18.130Z,24.96
2019-04-26T08:37:19.257Z,24.90
2019-04-26T08:38:22.342Z,24.93
2019-04-26T08:39:18.149Z,24.91
2019-04-26T08:40:25.529Z,24.95
2019-04-26T08:41:19.091Z,24.98
2019-04-26T08:42:23.445Z,24.91
2019-04-26T08:43:20.094Z,24.85
2019-04-26T08:44:18.063Z,25.05
2019-04-26T08:45:18.065Z,24.95
2019-04-26T08:46:18.056Z,24.90
2019-04-26T08:47:24.218Z,24.91
2019-04-26T08:48:23.343Z,24.91
2019-04-26T08:49:19.022Z,24.88
2019-04-26T08:50:18.020Z,24.96
2019-04-26T08:51:20.709Z,24.87
2019-04-26T08:52:18.005Z,24.91
2019-04-26T08:53:18.012Z,24.95
2019-04-26T08:54:18.046Z,24.90
2019-04-26T08:55:18.000Z,24.99
2019-04-26T08:56:20.361Z,24.90
2019-04-26T08:57:17.992Z,25.00
2019-04-26T08:58:17.978Z,24.90
2019-04-26T08:59:17.967Z,24.93
2019-04-26T09:00:17.969Z,24.90
2019-04-26T09:01:17.949Z,24.93
2019-04-26T09:02:17.947Z,24.93
2019-04-26T09:03:17.950Z,24.98
2019-04-26T09:04:17.963Z,24.93
2019-04-26T09:05:17.923Z,24.98
2019-04-26T09:06:17.913Z,24.99
2019-04-26T09:07:17.909Z,24.91
2019-04-26T09:08:17.900Z,24.90
2019-04-26T09:09:19.523Z,24.91
2019-04-26T09:10:17.883Z,24.88
2019-04-26T09:11:26.063Z,24.87
2019-04-26T09:12:23.360Z,24.98
2019-04-26T09:13:17.870Z,24.99
2019-04-26T09:14:17.852Z,24.88
2019-04-26T09:15:17.934Z,24.93
2019-04-26T09:16:17.957Z,24.96
2019-04-26T09:17:17.850Z,24.90
2019-04-26T09:18:17.834Z,24.91
2019-04-26T09:19:17.816Z,24.91
2019-04-26T09:20:28.272Z,24.88
2019-04-26T09:21:19.233Z,24.87
2019-04-26T09:22:17.789Z,24.99
2019-04-26T09:23:17.780Z,24.88
2019-04-26T09:24:21.106Z,24.90
2019-04-26T09:25:18.781Z,24.91
2019-04-26T09:26:17.779Z,24.95
2019-04-26T09:27:20.997Z,24.98
2019-04-26T09:28:17.744Z,24.96
2019-04-26T09:29:17.731Z,24.90
2019-04-26T09:30:17.786Z,24.85
2019-04-26T09:31:19.778Z,24.90
2019-04-26T09:32:17.714Z,24.93
2019-04-26T09:33:17.839Z,25.00
2019-04-26T09:34:17.719Z,24.96
2019-04-26T09:35:17.724Z,24.95
2019-04-26T09:36:18.225Z,24.95
2019-04-26T09:37:17.696Z,24.91
2019-04-26T09:38:17.689Z,24.91
2019-04-26T09:39:17.711Z,24.93
2019-04-26T09:40:21.735Z,24.98
2019-04-26T09:41:18.730Z,25.02
2019-04-26T09:42:17.749Z,24.91
2019-04-26T09:43:17.644Z,24.96
2019-04-26T09:44:17.649Z,24.90
2019-04-26T09:45:17.638Z,24.91
2019-04-26T09:46:17.682Z,24.99
2019-04-26T09:47:17.618Z,24.98
2019-04-26T09:48:17.622Z,24.93
2019-04-26T09:49:17.651Z,24.93
2019-04-26T09:50:17.605Z,25.00
2019-04-26T09:51:17.647Z,25.02
2019-04-26T09:52:17.605Z,24.99
2019-04-26T09:53:17.583Z,24.95
2019-04-26T09:54:17.598Z,24.98
2019-04-26T09:55:17.629Z,24.96
2019-04-26T09:56:17.560Z,24.95
2019-04-26T09:57:17.565Z,25.03
2019-04-26T09:58:17.601Z,25.02
2019-04-26T09:59:17.546Z,25.00
2019-04-26T10:00:17.538Z,25.08
2019-04-26T10:01:19.607Z,24.93
2019-04-26T10:02:18.594Z,24.99
2019-04-26T10:03:17.506Z,24.91
2019-04-26T10:04:17.494Z,24.93
2019-04-26T10:05:21.643Z,24.98
2019-04-26T10:06:17.595Z,24.99
2019-04-26T10:07:17.473Z,24.95
2019-04-26T10:08:17.554Z,24.96
2019-04-26T10:09:21.162Z,24.93
2019-04-26T10:10:23.090Z,24.93
2019-04-26T10:11:17.471Z,24.95
2019-04-26T10:12:17.456Z,25.02
2019-04-26T10:13:17.450Z,25.00
2019-04-26T10:14:17.496Z,24.96
2019-04-26T10:15:17.473Z,24.95
2019-04-26T10:16:17.431Z,24.96
2019-04-26T10:17:17.600Z,24.90
2019-04-26T10:18:20.474Z,24.96
2019-04-26T10:19:18.510Z,24.96
2019-04-26T10:20:17.420Z,24.91
2019-04-26T10:21:17.419Z,24.96
2019-04-26T10:22:17.418Z,24.93
2019-04-26T10:23:17.398Z,25.00
2019-04-26T10:24:17.402Z,24.95
2019-04-26T10:25:17.447Z,24.96
2019-04-26T10:26:17.390Z,24.96
2019-04-26T10:27:17.382Z,24.91
2019-04-26T10:28:17.370Z,24.99
2019-04-26T10:29:17.367Z,24.91
2019-04-26T10:30:17.352Z,24.95
2019-04-26T10:31:18.556Z,24.95
2019-04-26T10:32:17.351Z,24.98
2019-04-26T10:33:17.385Z,24.93
2019-04-26T10:34:17.334Z,24.99
2019-04-26T10:35:21.179Z,24.93
2019-04-26T10:36:17.314Z,24.96
2019-04-26T10:37:17.311Z,24.99
2019-04-26T10:38:19.325Z,24.98
2019-04-26T10:39:18.314Z,24.90
2019-04-26T10:40:17.360Z,24.98
2019-04-26T10:41:17.297Z,24.98
2019-04-26T10:42:17.312Z,24.95
2019-04-26T10:43:17.280Z,25.00
2019-04-26T10:44:17.289Z,24.90
2019-04-26T10:45:17.277Z,24.96
2019-04-26T10:46:17.290Z,24.93
2019-04-26T10:47:17.259Z,25.00
2019-04-26T10:48:17.287Z,25.00
2019-04-26T10:49:20.447Z,24.95
2019-04-26T10:50:18.263Z,25.03
2019-04-26T10:51:17.269Z,24.99
2019-04-26T10:52:17.247Z,24.93
2019-04-26T10:53:17.243Z,24.91
2019-04-26T10:54:17.234Z,24.91
2019-04-26T10:55:17.548Z,24.91
2019-04-26T10:56:20.224Z,24.95
2019-04-26T10:57:18.201Z,24.91
2019-04-26T10:58:17.199Z,24.99
2019-04-26T10:59:17.242Z,24.96
2019-04-26T11:00:18.074Z,25.00
2019-04-26T11:01:17.183Z,25.05
2019-04-26T11:02:17.173Z,24.99
2019-04-26T11:03:17.159Z,24.95
2019-04-26T11:04:17.146Z,24.95
2019-04-26T11:05:19.211Z,24.98
2019-04-26T11:06:17.155Z,24.99
2019-04-26T11:07:17.161Z,24.91
2019-04-26T11:08:17.142Z,24.98
2019-04-26T11:09:17.172Z,24.95
2019-04-26T11:10:17.125Z,24.99
2019-04-26T11:11:17.121Z,24.88
2019-04-26T11:12:17.131Z,24.96
2019-04-26T11:13:17.199Z,24.91
2019-04-26T11:14:18.268Z,25.00
2019-04-26T11:15:18.094Z,24.96
2019-04-26T11:16:17.169Z,25.03
2019-04-26T11:17:17.841Z,24.95
2019-04-26T11:18:19.908Z,24.99
2019-04-26T11:19:18.066Z,24.93
2019-04-26T11:20:17.062Z,25.00
2019-04-26T11:21:20.797Z,24.95
2019-04-26T11:22:28.511Z,25.00
2019-04-26T11:23:18.047Z,24.91
2019-04-26T11:24:19.537Z,24.93
2019-04-26T11:25:17.035Z,24.95
2019-04-26T11:26:17.031Z,25.06
2019-04-26T11:27:17.059Z,24.95
2019-04-26T11:28:20.851Z,24.95
2019-04-26T11:29:17.005Z,24.91
2019-04-26T11:30:20.946Z,24.95
2019-04-26T11:31:17.081Z,24.96
2019-04-26T11:32:16.984Z,24.93
2019-04-26T11:33:16.982Z,24.93
2019-04-26T11:34:19.278Z,24.91
2019-04-26T11:35:17.972Z,24.98
2019-04-26T11:36:16.958Z,24.95
2019-04-26T11:37:17.798Z,24.96
2019-04-26T11:38:16.948Z,24.96
2019-04-26T11:39:16.960Z,24.98
2019-04-26T11:40:16.922Z,25.02
2019-04-26T11:41:16.919Z,25.03
2019-04-26T11:42:16.905Z,25.03
2019-04-26T11:43:19.438Z,25.03
2019-04-26T11:44:16.891Z,24.99
2019-04-26T11:45:16.899Z,24.93
2019-04-26T11:46:16.876Z,24.93
2019-04-26T11:47:16.913Z,25.02
2019-04-26T11:48:16.866Z,24.93
2019-04-26T11:49:16.941Z,25.02
2019-04-26T11:50:17.852Z,24.98
2019-04-26T11:51:16.842Z,24.95
2019-04-26T11:52:16.832Z,25.00
2019-04-26T11:53:16.972Z,24.93
2019-04-26T11:54:20.327Z,24.98
2019-04-26T11:55:16.812Z,25.00
2019-04-26T11:56:16.813Z,24.98
2019-04-26T11:57:16.793Z,24.99
2019-04-26T11:58:17.883Z,24.93
2019-04-26T11:59:17.771Z,24.95
2019-04-26T12:00:16.762Z,25.00
2019-04-26T12:01:16.776Z,25.02
2019-04-26T12:02:17.302Z,24.95
2019-04-26T12:03:16.751Z,25.03
2019-04-26T12:04:16.742Z,25.06
2019-04-26T12:05:16.743Z,24.93
2019-04-26T12:06:16.726Z,25.00
2019-04-26T12:07:16.737Z,25.03
2019-04-26T12:08:16.708Z,24.93
2019-04-26T12:09:16.709Z,25.00
2019-04-26T12:10:16.703Z,25.08
2019-04-26T12:11:18.459Z,24.98
2019-04-26T12:12:16.701Z,24.99
2019-04-26T12:13:16.799Z,25.00
2019-04-26T12:14:20.597Z,25.14
2019-04-26T12:15:29.494Z,25.00
2019-04-26T12:16:18.881Z,24.99
2019-04-26T12:17:16.697Z,25.06
2019-04-26T12:18:16.754Z,24.93
2019-04-26T12:19:18.322Z,25.02
2019-04-26T12:20:16.691Z,25.03
2019-04-26T12:21:16.686Z,24.99
2019-04-26T12:22:16.754Z,25.00
2019-04-26T12:23:20.482Z,25.10
2019-04-26T12:24:17.680Z,25.08
2019-04-26T12:25:16.648Z,24.98
2019-04-26T12:26:17.234Z,25.03
2019-04-26T12:27:16.740Z,24.93
2019-04-26T12:28:16.657Z,25.00
2019-04-26T12:29:16.642Z,24.91
2019-04-26T12:30:16.641Z,25.05
2019-04-26T12:31:16.672Z,24.99
2019-04-26T12:32:17.255Z,25.02
2019-04-26T12:33:16.626Z,25.00
2019-04-26T12:34:17.962Z,25.03
2019-04-26T12:35:16.820Z,24.99
2019-04-26T12:36:16.724Z,24.96
2019-04-26T12:37:19.948Z,24.96
2019-04-26T12:38:16.680Z,24.95
2019-04-26T12:39:16.610Z,24.96
2019-04-26T12:40:19.275Z,24.98
2019-04-26T12:41:17.161Z,24.98
2019-04-26T12:42:16.606Z,24.98
2019-04-26T12:43:20.085Z,25.03
2019-04-26T12:44:17.575Z,24.99
2019-04-26T12:45:16.963Z,25.00
2019-04-26T12:46:16.562Z,25.00
2019-04-26T12:47:16.568Z,24.90
2019-04-26T12:48:16.850Z,24.99
2019-04-26T12:49:16.552Z,24.96
2019-04-26T12:50:16.552Z,24.93
2019-04-26T12:51:16.537Z,24.96
2019-04-26T12:52:17.382Z,25.03